Terminal Aerodrome Forecast
Issued by NWS

Home | Current Version | Previous Version | Graphics & Text | Print | Product List | Glossary On
Versions: 1 2 3 4 5 6 7 8 9 10 11 12 13 14 15 16 17 18 19 20 21 22 23 24 25 26 27 28 29
000
FTUS43 KLSX 142107 AAA
TAFSUS
TAF AMD
KSUS 142107Z 1421/1518 19005KT P6SM OVC025
     FM150000 19005KT P6SM BKN040
     FM150300 VRB03KT P6SM SCT050
     FM151000 VRB03KT P6SM SCT150=

USA.gov is the U.S. government's official web portal to all federal, state and local government web resources and services.